Time;durP1;ratioP1;P1;durP2;ratioP2;P2;SDS_P1;SDS_P2;PMS_P1;PMS_P2;Temp;Humidity;BMP_temperature;BMP_pressure;BME280_temperature;BME280_humidity;BME280_pressure;Samples;Min_cycle;Max_cycle;Signal;HPM_P1;HPM_P2
2021/10/17 00:00:31;;;;;;;16.95;9.15;;;4.80;99.90;;;;;;5078388;28;20093;-62
2021/10/17 00:02:57;;;;;;;28.15;9.30;;;4.80;99.90;;;;;;5080105;28;20040;-59
2021/10/17 00:05:26;;;;;;;31.55;9.90;;;4.80;99.90;;;;;;5076240;28;20039;-58
2021/10/17 00:07:52;;;;;;;23.33;9.57;;;4.70;99.90;;;;;;5078568;28;20043;-58
2021/10/17 00:10:24;;;;;;;23.33;9.65;;;4.70;99.90;;;;;;5077175;28;20024;-60
2021/10/17 00:12:55;;;;;;;23.40;8.95;;;4.70;99.90;;;;;;5078696;28;20039;-59
2021/10/17 00:15:22;;;;;;;21.88;9.02;;;4.70;99.90;;;;;;5078461;28;20879;-59
2021/10/17 00:17:49;;;;;;;23.13;9.93;;;4.80;99.90;;;;;;5079371;28;20031;-56
2021/10/17 00:20:22;;;;;;;22.60;8.50;;;4.80;99.90;;;;;;5076873;28;20086;-59
2021/10/17 00:22:49;;;;;;;25.45;9.13;;;4.80;99.90;;;;;;5076769;28;20039;-59
2021/10/17 00:25:15;;;;;;;20.05;9.27;;;4.80;99.90;;;;;;5075951;28;20397;-59
2021/10/17 00:27:41;;;;;;;19.38;9.10;;;4.80;99.90;;;;;;5079982;28;20028;-59
2021/10/17 00:30:08;;;;;;;16.17;8.88;;;4.80;99.90;;;;;;5079404;28;20081;-59
2021/10/17 00:32:34;;;;;;;22.00;8.10;;;4.80;99.90;;;;;;5077293;28;20027;-60
2021/10/17 00:35:01;;;;;;;17.75;8.75;;;4.80;99.90;;;;;;5075036;28;20485;-58
2021/10/17 00:37:30;;;;;;;20.33;9.93;;;4.70;99.90;;;;;;5073790;28;20750;-59
2021/10/17 00:39:56;;;;;;;25.63;9.90;;;4.70;99.90;;;;;;5073592;28;20024;-59
2021/10/17 00:42:22;;;;;;;24.65;9.32;;;4.70;99.90;;;;;;5074367;28;20047;-60
2021/10/17 00:45:07;;;;;;;25.33;8.90;;;4.70;99.90;;;;;;5074732;28;20040;-58
2021/10/17 00:47:33;;;;;;;23.65;8.90;;;4.70;99.90;;;;;;5073259;28;20074;-58
2021/10/17 00:49:59;;;;;;;19.48;8.88;;;4.60;99.90;;;;;;5083883;28;20036;-59
2021/10/17 00:52:25;;;;;;;24.10;10.13;;;4.60;99.90;;;;;;5089490;28;20082;-58
2021/10/17 00:54:50;;;;;;;17.70;9.23;;;4.60;99.90;;;;;;5080119;28;20489;-58
2021/10/17 00:57:16;;;;;;;21.65;9.35;;;4.60;99.90;;;;;;5075296;28;20146;-60
2021/10/17 00:59:43;;;;;;;23.38;9.40;;;4.60;99.90;;;;;;5075454;28;20108;-59
2021/10/17 01:02:09;;;;;;;20.33;8.88;;;4.50;99.90;;;;;;5076001;28;20385;-59
2021/10/17 01:04:37;;;;;;;24.98;10.05;;;4.50;99.90;;;;;;5079121;28;20028;-60
2021/10/17 01:07:04;;;;;;;20.70;8.55;;;4.40;99.90;;;;;;5076809;28;20061;-57
2021/10/17 01:09:30;;;;;;;22.48;9.50;;;4.40;99.90;;;;;;5077509;28;20032;-59
2021/10/17 01:11:56;;;;;;;19.90;9.48;;;4.40;99.90;;;;;;5077288;28;20024;-59
2021/10/17 01:14:24;;;;;;;21.33;9.77;;;4.40;99.90;;;;;;5076345;28;20025;-59
2021/10/17 01:16:51;;;;;;;21.77;8.50;;;4.30;99.90;;;;;;5080783;28;20028;-59
2021/10/17 01:19:17;;;;;;;21.88;9.90;;;4.20;99.90;;;;;;5070642;28;20111;-59
2021/10/17 01:21:43;;;;;;;23.58;8.80;;;4.20;99.90;;;;;;5076238;28;20098;-58
2021/10/17 01:24:09;;;;;;;19.27;9.40;;;4.20;99.90;;;;;;5084337;28;20032;-59
2021/10/17 01:26:36;;;;;;;18.60;9.35;;;4.10;99.90;;;;;;5075789;28;20093;-58
2021/10/17 01:29:02;;;;;;;22.38;9.68;;;4.10;99.90;;;;;;5085906;28;20020;-58
2021/10/17 01:31:46;;;;;;;21.52;8.50;;;4.10;99.90;;;;;;5082221;28;20050;-58
2021/10/17 01:34:14;;;;;;;20.23;9.48;;;4.10;99.90;;;;;;5081704;28;20031;-58
2021/10/17 01:36:40;;;;;;;20.00;8.95;;;4.00;99.90;;;;;;5081512;28;20040;-57
2021/10/17 01:39:08;;;;;;;23.50;9.45;;;3.90;99.90;;;;;;5087692;28;20024;-58
2021/10/17 01:41:34;;;;;;;19.38;9.60;;;3.90;99.90;;;;;;5083878;28;20016;-59
2021/10/17 01:44:08;;;;;;;20.85;10.45;;;3.80;99.90;;;;;;5087434;28;20107;-58
2021/10/17 01:46:35;;;;;;;21.90;11.25;;;3.80;99.90;;;;;;5084510;28;20028;-59
2021/10/17 01:49:01;;;;;;;21.63;10.43;;;3.80;99.90;;;;;;5088245;28;20036;-59
2021/10/17 01:51:27;;;;;;;26.05;10.38;;;3.80;99.90;;;;;;5086712;28;20028;-59
2021/10/17 01:53:52;;;;;;;20.67;9.80;;;3.90;99.90;;;;;;5085233;28;20035;-57
2021/10/17 01:56:18;;;;;;;21.33;9.00;;;3.90;99.90;;;;;;5089943;28;20055;-59
2021/10/17 01:58:43;;;;;;;28.10;9.48;;;3.90;99.90;;;;;;5086498;28;20105;-59
2021/10/17 02:01:09;;;;;;;20.48;9.27;;;3.90;99.90;;;;;;5083320;28;20410;-59
2021/10/17 02:03:35;;;;;;;22.25;9.02;;;3.80;99.90;;;;;;5081937;28;20108;-59
2021/10/17 02:06:02;;;;;;;20.70;9.70;;;3.80;99.90;;;;;;5082887;28;20111;-59
2021/10/17 02:08:28;;;;;;;19.23;8.88;;;3.70;99.90;;;;;;5086882;28;20031;-59
2021/10/17 02:10:54;;;;;;;23.98;9.63;;;3.70;99.90;;;;;;5085922;28;20081;-59
2021/10/17 02:13:20;;;;;;;20.65;9.32;;;3.60;99.90;;;;;;5087205;28;20102;-59
2021/10/17 02:15:46;;;;;;;19.48;8.95;;;3.70;99.90;;;;;;5091441;28;20028;-59
2021/10/17 02:18:11;;;;;;;25.38;9.30;;;3.80;99.90;;;;;;5086395;28;20503;-58
2021/10/17 02:20:37;;;;;;;20.63;8.38;;;3.80;99.90;;;;;;5088040;28;20055;-59
2021/10/17 02:23:06;;;;;;;21.40;8.60;;;3.80;99.90;;;;;;5083468;28;20058;-59
2021/10/17 02:25:33;;;;;;;19.30;8.48;;;3.80;99.90;;;;;;5086007;28;20038;-57
2021/10/17 02:27:59;;;;;;;22.58;8.88;;;3.80;99.90;;;;;;5091101;28;20028;-59
2021/10/17 02:30:25;;;;;;;18.45;8.50;;;3.80;99.90;;;;;;5089363;28;20024;-58
2021/10/17 02:32:51;;;;;;;17.60;8.95;;;3.70;99.90;;;;;;5092880;28;20036;-58
2021/10/17 02:35:16;;;;;;;17.38;8.60;;;3.70;99.90;;;;;;5085454;28;20028;-58
2021/10/17 02:37:42;;;;;;;21.00;7.63;;;3.70;99.90;;;;;;5090316;28;20032;-59
2021/10/17 02:40:09;;;;;;;20.95;8.10;;;3.60;99.90;;;;;;5087847;28;20032;-59
2021/10/17 02:42:35;;;;;;;17.23;8.10;;;3.60;99.90;;;;;;5088976;28;20040;-57
2021/10/17 02:45:00;;;;;;;17.55;8.95;;;3.60;99.90;;;;;;5088995;28;20031;-59
2021/10/17 02:47:27;;;;;;;21.65;9.40;;;3.60;99.90;;;;;;5092297;28;20036;-58
2021/10/17 02:49:53;;;;;;;22.05;9.38;;;3.60;99.90;;;;;;5090029;28;20059;-60
2021/10/17 02:52:18;;;;;;;24.77;8.25;;;3.70;99.90;;;;;;5090192;28;20058;-60
2021/10/17 02:54:44;;;;;;;23.52;8.02;;;3.80;99.90;;;;;;5089287;28;20382;-59
2021/10/17 02:57:10;;;;;;;23.85;8.48;;;3.80;99.90;;;;;;5083204;28;20076;-60
2021/10/17 02:59:35;;;;;;;27.00;8.93;;;3.80;99.90;;;;;;5092811;28;20062;-60
2021/10/17 03:02:01;;;;;;;19.90;8.43;;;3.80;99.90;;;;;;5085931;28;20040;-58
2021/10/17 03:04:27;;;;;;;20.08;9.15;;;3.70;99.90;;;;;;5089417;28;20094;-59
2021/10/17 03:06:52;;;;;;;16.92;8.80;;;3.70;99.90;;;;;;5085967;28;20157;-60
2021/10/17 03:09:18;;;;;;;30.08;9.38;;;3.80;99.90;;;;;;5088195;28;20053;-59
2021/10/17 03:11:43;;;;;;;23.85;8.70;;;3.80;99.90;;;;;;5088762;28;20591;-60
2021/10/17 03:14:09;;;;;;;21.45;8.95;;;3.80;99.90;;;;;;5088882;28;20501;-60
2021/10/17 03:16:35;;;;;;;16.20;8.55;;;3.80;99.90;;;;;;5089831;28;20547;-58
2021/10/17 03:19:00;;;;;;;23.58;9.23;;;3.70;99.90;;;;;;5086961;28;20425;-60
2021/10/17 03:21:26;;;;;;;31.13;10.95;;;3.70;99.90;;;;;;5085667;28;20103;-58
2021/10/17 03:23:52;;;;;;;20.38;8.75;;;3.60;99.90;;;;;;5089455;28;20040;-59
2021/10/17 03:26:17;;;;;;;22.92;9.93;;;3.60;99.90;;;;;;5083121;28;20039;-58
2021/10/17 03:28:43;;;;;;;21.42;8.40;;;3.70;99.90;;;;;;5089769;28;20028;-59
2021/10/17 03:31:09;;;;;;;24.77;9.82;;;3.70;99.90;;;;;;5085509;28;20089;-60
2021/10/17 03:33:35;;;;;;;19.05;8.25;;;3.60;99.90;;;;;;5088110;28;20058;-60
2021/10/17 03:36:01;;;;;;;16.45;7.57;;;3.60;99.90;;;;;;5088083;28;20028;-59
2021/10/17 03:38:27;;;;;;;18.33;9.40;;;3.60;99.90;;;;;;5082513;28;20038;-59
2021/10/17 03:40:52;;;;;;;22.65;8.93;;;3.50;99.90;;;;;;5089683;28;20035;-60
2021/10/17 03:43:18;;;;;;;24.25;9.73;;;3.50;99.90;;;;;;5086293;28;20028;-57
2021/10/17 03:45:43;;;;;;;18.05;9.40;;;3.40;99.90;;;;;;5087075;28;20028;-59
2021/10/17 03:48:09;;;;;;;19.25;8.95;;;3.40;99.90;;;;;;5084617;28;20058;-57
2021/10/17 03:50:35;;;;;;;22.67;9.93;;;3.40;99.90;;;;;;5087646;28;20028;-59
2021/10/17 03:53:01;;;;;;;22.30;10.27;;;3.40;99.90;;;;;;5087634;28;20088;-59
2021/10/17 03:55:27;;;;;;;25.55;10.70;;;3.30;99.90;;;;;;5084787;28;20075;-58
2021/10/17 03:57:53;;;;;;;28.92;10.45;;;3.20;99.90;;;;;;5089475;28;20036;-57
2021/10/17 04:00:18;;;;;;;18.55;9.73;;;3.30;99.90;;;;;;5086689;28;20505;-59
2021/10/17 04:02:44;;;;;;;31.13;10.77;;;3.30;99.90;;;;;;5087711;28;20506;-58
2021/10/17 04:05:10;;;;;;;15.68;8.18;;;3.30;99.90;;;;;;5088344;28;20135;-59
2021/10/17 04:07:37;;;;;;;21.08;8.68;;;3.20;99.90;;;;;;5091072;28;20427;-58
2021/10/17 04:10:06;;;;;;;20.33;8.55;;;3.20;99.90;;;;;;5084775;28;20031;-58
2021/10/17 04:12:32;;;;;;;21.75;8.90;;;3.10;99.90;;;;;;5085027;28;20081;-59
2021/10/17 04:14:59;;;;;;;14.93;8.93;;;3.00;99.90;;;;;;5088687;28;20028;-59
2021/10/17 04:17:25;;;;;;;21.17;9.45;;;2.90;99.90;;;;;;5081778;28;20029;-61
2021/10/17 04:19:51;;;;;;;20.92;9.02;;;2.90;99.90;;;;;;5085960;28;20032;-58
2021/10/17 04:22:16;;;;;;;29.02;11.30;;;2.80;99.90;;;;;;5090925;28;20032;-56
2021/10/17 04:24:42;;;;;;;30.95;11.70;;;2.80;99.90;;;;;;5085775;28;20471;-58
2021/10/17 04:27:09;;;;;;;22.38;9.63;;;2.80;99.90;;;;;;5086476;28;20028;-58
2021/10/17 04:29:35;;;;;;;20.20;10.20;;;2.80;99.90;;;;;;5087681;28;20032;-59
2021/10/17 04:32:02;;;;;;;14.15;7.72;;;2.90;99.90;;;;;;5083123;28;20020;-58
2021/10/17 04:34:28;;;;;;;14.55;7.78;;;2.90;99.90;;;;;;5089169;28;20374;-58
2021/10/17 04:36:53;;;;;;;19.98;8.20;;;2.80;99.90;;;;;;5084104;28;20036;-59
2021/10/17 04:39:19;;;;;;;19.77;8.70;;;2.70;99.90;;;;;;5090766;28;20036;-59
2021/10/17 04:41:45;;;;;;;16.33;8.45;;;2.70;99.90;;;;;;5088151;28;20035;-57
2021/10/17 04:44:11;;;;;;;17.63;8.98;;;2.70;99.90;;;;;;5088174;28;20034;-59
2021/10/17 04:46:36;;;;;;;23.90;9.82;;;2.60;99.90;;;;;;5085569;28;20405;-59
2021/10/17 04:49:02;;;;;;;21.88;9.15;;;2.60;99.90;;;;;;5082475;28;20047;-59
2021/10/17 04:51:28;;;;;;;23.38;9.27;;;2.60;99.90;;;;;;5087480;28;20051;-59
2021/10/17 04:53:54;;;;;;;24.25;9.70;;;2.60;99.90;;;;;;5083993;28;20063;-58
2021/10/17 04:56:19;;;;;;;21.67;8.93;;;2.60;99.90;;;;;;5089222;28;20035;-59
2021/10/17 04:58:45;;;;;;;19.10;9.23;;;2.60;99.90;;;;;;5084294;28;20036;-58
2021/10/17 05:01:11;;;;;;;20.17;8.57;;;2.50;99.90;;;;;;5082727;28;20278;-57
2021/10/17 05:03:37;;;;;;;19.42;10.25;;;2.50;99.90;;;;;;5083400;28;20405;-59
2021/10/17 05:06:03;;;;;;;21.13;10.15;;;2.50;99.90;;;;;;5089974;28;20114;-59
2021/10/17 05:08:29;;;;;;;21.08;9.15;;;2.50;99.90;;;;;;5088399;28;20051;-58
2021/10/17 05:10:55;;;;;;;27.13;10.20;;;2.50;99.90;;;;;;5086707;28;20024;-58
2021/10/17 05:13:21;;;;;;;21.90;9.88;;;2.50;99.90;;;;;;5082778;28;20031;-59
2021/10/17 05:15:46;;;;;;;18.90;9.63;;;2.50;99.90;;;;;;5088103;28;20024;-59
2021/10/17 05:18:12;;;;;;;19.63;9.80;;;2.60;99.90;;;;;;5082409;28;20024;-59
2021/10/17 05:20:37;;;;;;;27.17;10.05;;;2.70;99.90;;;;;;5084085;28;20064;-58
2021/10/17 05:23:04;;;;;;;28.60;9.60;;;2.70;99.90;;;;;;5079831;28;20020;-59
2021/10/17 05:25:30;;;;;;;19.15;9.32;;;2.70;99.90;;;;;;5085831;28;20424;-59
2021/10/17 05:27:56;;;;;;;27.85;10.05;;;2.70;99.90;;;;;;5085916;28;20025;-57
2021/10/17 05:30:22;;;;;;;17.05;8.45;;;2.70;99.90;;;;;;5085823;28;20042;-59
2021/10/17 05:32:48;;;;;;;13.25;8.38;;;2.70;99.90;;;;;;5083091;28;20107;-59
2021/10/17 05:35:13;;;;;;;19.33;8.27;;;2.60;99.90;;;;;;5087324;28;20057;-58
2021/10/17 05:37:39;;;;;;;19.85;8.32;;;2.60;99.90;;;;;;5088521;28;20032;-58
2021/10/17 05:40:06;;;;;;;15.80;8.15;;;2.60;99.90;;;;;;5085444;28;20112;-59
2021/10/17 05:42:31;;;;;;;14.65;7.90;;;2.60;99.90;;;;;;5085055;28;20105;-58
2021/10/17 05:44:57;;;;;;;16.45;8.25;;;2.60;99.90;;;;;;5086666;28;20497;-59
2021/10/17 05:47:23;;;;;;;15.00;7.22;;;2.60;99.90;;;;;;5084949;28;20521;-59
2021/10/17 05:49:49;;;;;;;16.70;7.80;;;2.50;99.90;;;;;;5088209;28;20032;-59
2021/10/17 05:52:14;;;;;;;15.10;7.53;;;2.50;99.90;;;;;;5087004;28;20082;-58
2021/10/17 05:54:40;;;;;;;15.23;7.35;;;2.50;99.90;;;;;;5086047;28;20034;-58
2021/10/17 05:57:06;;;;;;;13.73;6.82;;;2.50;99.90;;;;;;5085774;28;20497;-58
2021/10/17 05:59:32;;;;;;;16.42;8.10;;;2.50;99.90;;;;;;5086657;28;20051;-59
2021/10/17 06:01:57;;;;;;;16.08;7.85;;;2.40;99.90;;;;;;5084947;28;20032;-59
2021/10/17 06:04:23;;;;;;;17.63;9.07;;;2.40;99.90;;;;;;5084429;28;20032;-59
2021/10/17 06:06:48;;;;;;;23.58;10.82;;;2.40;99.90;;;;;;5087334;28;20121;-59
2021/10/17 06:09:14;;;;;;;17.20;8.75;;;2.40;99.90;;;;;;5082790;28;20028;-59
2021/10/17 06:11:40;;;;;;;19.55;8.30;;;2.50;99.90;;;;;;5083118;28;20448;-59
2021/10/17 06:14:06;;;;;;;18.73;8.40;;;2.50;99.90;;;;;;5080877;28;20050;-60
2021/10/17 06:16:32;;;;;;;16.92;8.82;;;2.60;99.90;;;;;;5087843;28;20051;-59
2021/10/17 06:18:58;;;;;;;18.73;7.95;;;2.60;99.90;;;;;;5081736;28;20024;-60
2021/10/17 06:21:23;;;;;;;13.13;7.95;;;2.70;99.90;;;;;;5078801;28;20051;-59
2021/10/17 06:23:49;;;;;;;18.23;9.00;;;2.80;99.90;;;;;;5085712;28;20043;-60
2021/10/17 06:26:15;;;;;;;18.42;7.70;;;2.90;99.90;;;;;;5082962;28;20036;-60
2021/10/17 06:28:40;;;;;;;17.80;7.80;;;2.90;99.90;;;;;;5084530;28;20042;-59
2021/10/17 06:31:06;;;;;;;14.57;7.53;;;2.90;99.90;;;;;;5082713;28;20135;-55
2021/10/17 06:33:31;;;;;;;15.32;7.25;;;3.00;99.90;;;;;;5089101;28;20111;-60
2021/10/17 06:35:57;;;;;;;17.15;7.25;;;3.00;99.90;;;;;;5083877;28;20028;-60
2021/10/17 06:38:22;;;;;;;13.73;7.25;;;3.10;99.90;;;;;;5082450;28;20032;-61
2021/10/17 06:40:48;;;;;;;16.88;7.00;;;3.10;99.90;;;;;;5084363;28;20481;-59
2021/10/17 06:43:13;;;;;;;11.88;6.65;;;3.10;99.90;;;;;;5086260;28;20074;-59
2021/10/17 06:45:39;;;;;;;20.52;7.10;;;3.20;99.90;;;;;;5088001;28;20032;-59
2021/10/17 06:48:04;;;;;;;17.60;6.65;;;3.20;99.90;;;;;;5082118;28;20028;-59
2021/10/17 06:50:30;;;;;;;9.13;6.32;;;3.30;99.90;;;;;;5083711;28;20031;-59
2021/10/17 06:52:57;;;;;;;10.00;5.97;;;3.50;99.90;;;;;;5086273;28;20107;-59
2021/10/17 06:55:22;;;;;;;13.85;6.22;;;3.50;99.90;;;;;;5078125;28;20029;-58
2021/10/17 06:57:48;;;;;;;16.75;5.72;;;3.50;99.90;;;;;;5089239;28;20061;-59
2021/10/17 07:00:14;;;;;;;10.77;6.43;;;3.60;99.90;;;;;;5082166;28;20031;-58
2021/10/17 07:02:39;;;;;;;13.02;6.03;;;3.60;99.90;;;;;;5089724;28;20036;-59
2021/10/17 07:05:05;;;;;;;13.88;6.10;;;3.60;99.90;;;;;;5080594;28;20066;-57
2021/10/17 07:07:31;;;;;;;10.52;5.43;;;3.60;99.90;;;;;;5088764;28;20047;-59
2021/10/17 07:09:56;;;;;;;12.30;5.85;;;3.70;99.90;;;;;;5084277;28;20028;-60
2021/10/17 07:12:22;;;;;;;16.67;6.00;;;3.70;99.90;;;;;;5086697;28;20036;-57
2021/10/17 07:14:50;;;;;;;12.70;6.28;;;3.70;99.90;;;;;;5088539;28;20024;-58
2021/10/17 07:17:15;;;;;;;11.48;5.28;;;3.80;99.90;;;;;;5087504;28;20035;-60
2021/10/17 07:19:41;;;;;;;10.45;5.70;;;3.90;99.90;;;;;;5088458;28;20036;-59
2021/10/17 07:22:06;;;;;;;20.73;6.75;;;4.10;99.90;;;;;;5092528;28;20035;-60
2021/10/17 07:24:32;;;;;;;18.85;5.72;;;4.10;99.90;;;;;;5083656;28;20033;-58
2021/10/17 07:26:59;;;;;;;15.10;5.55;;;4.30;99.90;;;;;;5090353;28;20039;-59
2021/10/17 07:29:25;;;;;;;15.63;5.38;;;4.40;99.90;;;;;;5089955;28;20016;-60
2021/10/17 07:31:51;;;;;;;13.65;6.07;;;4.50;99.90;;;;;;5085694;28;20047;-59
2021/10/17 07:34:16;;;;;;;14.18;6.63;;;4.70;99.90;;;;;;5091400;28;20028;-59
2021/10/17 07:36:42;;;;;;;10.45;5.50;;;4.80;99.90;;;;;;5085547;28;20055;-58
2021/10/17 07:39:10;;;;;;;8.43;4.70;;;4.90;99.90;;;;;;5088071;28;20496;-58
2021/10/17 07:41:36;;;;;;;14.13;5.53;;;5.00;99.90;;;;;;5085231;28;20043;-60
2021/10/17 07:44:02;;;;;;;9.88;4.97;;;5.10;99.90;;;;;;5088639;28;20511;-60
2021/10/17 07:46:28;;;;;;;12.25;6.07;;;5.30;99.90;;;;;;5088432;28;20056;-60
2021/10/17 07:48:58;;;;;;;9.18;5.70;;;5.40;99.90;;;;;;5084051;28;20397;-60
2021/10/17 07:51:25;;;;;;;14.90;6.63;;;5.50;99.90;;;;;;5089773;28;20382;-60
2021/10/17 07:53:51;;;;;;;22.75;6.70;;;5.60;99.90;;;;;;5089208;28;20032;-60
2021/10/17 07:56:16;;;;;;;9.73;5.80;;;5.70;99.90;;;;;;5083913;28;20046;-60
2021/10/17 07:58:42;;;;;;;11.23;5.65;;;5.70;99.90;;;;;;5088275;28;20028;-59
2021/10/17 08:01:07;;;;;;;11.77;5.80;;;5.60;99.90;;;;;;5083763;28;20050;-56
2021/10/17 08:03:33;;;;;;;11.18;5.28;;;5.60;99.90;;;;;;5087272;28;20078;-59
2021/10/17 08:05:59;;;;;;;11.63;5.13;;;5.50;99.90;;;;;;5084609;28;20032;-59
2021/10/17 08:08:24;;;;;;;18.35;5.95;;;5.60;99.90;;;;;;5085400;28;20051;-60
2021/10/17 08:10:50;;;;;;;8.60;5.35;;;5.60;99.90;;;;;;5091067;28;20035;-60
2021/10/17 08:13:15;;;;;;;9.98;5.40;;;5.70;99.90;;;;;;5091206;28;20028;-60
2021/10/17 08:15:41;;;;;;;12.52;5.60;;;5.80;99.90;;;;;;5084714;28;20393;-60
2021/10/17 08:18:07;;;;;;;16.15;5.18;;;6.00;99.90;;;;;;5087357;28;20065;-60
2021/10/17 08:20:32;;;;;;;8.38;4.20;;;6.10;99.90;;;;;;5087783;28;20065;-60
2021/10/17 08:22:58;;;;;;;11.55;6.22;;;6.30;99.90;;;;;;5087437;28;20508;-59
2021/10/17 08:25:23;;;;;;;12.40;5.65;;;6.40;99.90;;;;;;5090329;28;20023;-60
2021/10/17 08:27:49;;;;;;;17.73;7.18;;;6.60;99.90;;;;;;5088182;28;20048;-60
2021/10/17 08:30:15;;;;;;;13.60;4.95;;;6.80;99.90;;;;;;5088377;28;20024;-60
2021/10/17 08:32:40;;;;;;;13.35;4.30;;;7.00;99.90;;;;;;5082382;28;20379;-60
2021/10/17 08:35:06;;;;;;;15.88;5.25;;;7.10;99.90;;;;;;5087920;28;20063;-60
2021/10/17 08:37:33;;;;;;;12.90;5.25;;;7.20;99.90;;;;;;5088425;28;20035;-60
2021/10/17 08:39:59;;;;;;;9.57;4.43;;;7.30;99.90;;;;;;5087819;28;20409;-59
2021/10/17 08:42:25;;;;;;;11.55;5.40;;;7.40;99.90;;;;;;5086711;28;20024;-59
2021/10/17 08:44:55;;;;;;;12.70;4.93;;;7.40;99.90;;;;;;5088190;28;20545;-60
2021/10/17 08:47:22;;;;;;;13.07;4.45;;;7.60;99.90;;;;;;5093519;28;20048;-58
2021/10/17 08:49:49;;;;;;;8.55;4.93;;;7.70;99.90;;;;;;5090179;28;20028;-59
2021/10/17 08:52:15;;;;;;;11.23;4.43;;;7.90;99.90;;;;;;5093327;28;20061;-59
2021/10/17 08:54:44;;;;;;;10.45;4.80;;;8.00;99.90;;;;;;5099917;28;20059;-59
2021/10/17 08:57:10;;;;;;;11.38;4.65;;;8.20;99.90;;;;;;5086687;28;20035;-55
2021/10/17 08:59:35;;;;;;;12.93;4.63;;;8.40;99.90;;;;;;5090251;28;20421;-60
2021/10/17 09:02:42;;;;;;;9.90;4.60;;;8.50;99.90;;;;;;5088068;28;20111;-59
2021/10/17 09:05:08;;;;;;;7.32;4.43;;;8.90;99.90;;;;;;5073038;28;20047;-60
2021/10/17 09:07:33;;;;;;;16.27;4.53;;;9.40;99.90;;;;;;5089866;28;20032;-61
2021/10/17 09:10:07;;;;;;;9.35;4.13;;;9.80;99.90;;;;;;5087603;28;20550;-60
2021/10/17 09:12:33;;;;;;;12.40;5.38;;;10.40;99.90;;;;;;5086445;28;20024;-61
2021/10/17 09:15:22;;;;;;;11.40;5.63;;;10.90;99.90;;;;;;5088153;28;20501;-60
2021/10/17 09:18:12;;;;;;;4.05;2.20;;;11.20;99.90;;;;;;5084106;28;20028;-60
2021/10/17 09:20:50;;;;;;;4.03;2.35;;;11.60;99.90;;;;;;5087234;28;20085;-61
2021/10/17 09:23:31;;;;;;;4.63;3.22;;;11.90;99.90;;;;;;5088784;28;20039;-61
2021/10/17 09:25:58;;;;;;;5.38;2.10;;;12.10;99.90;;;;;;5083850;28;20104;-61
2021/10/17 09:28:31;;;;;;;3.95;2.08;;;12.40;99.90;;;;;;5092507;28;20099;-61
2021/10/17 09:31:06;;;;;;;5.67;2.07;;;12.90;99.90;;;;;;5092693;28;20055;-61
2021/10/17 09:33:33;;;;;;;4.10;2.05;;;13.20;99.90;;;;;;5083305;28;20123;-61
2021/10/17 09:35:59;;;;;;;4.35;2.78;;;13.20;99.90;;;;;;5089666;28;20055;-60
2021/10/17 09:38:39;;;;;;;5.15;2.00;;;13.40;99.90;;;;;;5089824;28;20100;-61
2021/10/17 09:41:20;;;;;;;3.95;1.70;;;13.70;99.90;;;;;;5083608;28;20016;-61
2021/10/17 09:43:51;;;;;;;5.32;2.17;;;13.80;99.90;;;;;;5080786;28;20027;-59
2021/10/17 09:46:16;;;;;;;3.90;1.90;;;14.30;99.90;;;;;;5087765;28;20050;-62
2021/10/17 09:48:43;;;;;;;5.38;2.08;;;14.20;99.90;;;;;;5083232;28;20041;-61
2021/10/17 09:51:29;;;;;;;7.78;6.18;;;14.20;99.90;;;;;;5089285;28;20020;-60
2021/10/17 09:54:00;;;;;;;14.25;10.07;;;14.00;99.90;;;;;;5088102;28;20039;-60
2021/10/17 09:56:35;;;;;;;5.07;3.70;;;13.70;99.90;;;;;;5089088;28;20024;-61
2021/10/17 09:59:04;;;;;;;4.07;2.63;;;13.60;99.90;;;;;;5086203;28;20028;-60
2021/10/17 10:01:30;;;;;;;5.03;2.28;;;13.30;99.90;;;;;;5089536;28;20039;-60
2021/10/17 10:03:57;;;;;;;19.52;11.68;;;13.20;99.90;;;;;;5089120;28;20673;-61
2021/10/17 10:06:24;;;;;;;7.38;3.45;;;13.10;99.90;;;;;;5087986;28;20035;-61
2021/10/17 10:08:53;;;;;;;8.20;3.90;;;13.00;99.90;;;;;;5086426;28;20017;-61
2021/10/17 10:11:25;;;;;;;6.95;3.30;;;13.00;99.90;;;;;;5082011;28;20024;-61
2021/10/17 10:13:52;;;;;;;3.58;2.17;;;13.10;99.90;;;;;;5080492;28;20074;-61
2021/10/17 10:16:22;;;;;;;3.03;1.70;;;13.20;99.90;;;;;;5088504;28;20028;-60
2021/10/17 10:18:57;;;;;;;3.28;2.05;;;13.30;99.90;;;;;;5082080;28;20028;-60
2021/10/17 10:21:23;;;;;;;3.45;1.80;;;13.40;99.90;;;;;;5085532;28;20767;-61
2021/10/17 10:23:52;;;;;;;5.15;2.20;;;13.60;99.90;;;;;;5093874;28;20054;-60
2021/10/17 10:26:23;;;;;;;4.38;2.35;;;13.70;99.90;;;;;;5087812;28;20558;-61
2021/10/17 10:28:50;;;;;;;4.50;2.35;;;13.70;99.90;;;;;;5105150;28;20059;-60
2021/10/17 10:31:41;;;;;;;3.20;1.95;;;13.80;99.90;;;;;;5094437;28;20052;-60
2021/10/17 10:34:12;;;;;;;3.28;2.13;;;13.80;99.90;;;;;;5083327;28;20043;-61
2021/10/17 10:36:45;;;;;;;3.38;1.90;;;13.80;99.60;;;;;;5093416;28;20032;-60
2021/10/17 10:39:13;;;;;;;8.65;4.97;;;13.90;99.90;;;;;;5080864;28;20107;-59
2021/10/17 10:41:45;;;;;;;5.05;1.58;;;13.80;99.90;;;;;;5086223;28;20503;-59
2021/10/17 10:44:13;;;;;;;2.53;1.67;;;13.90;99.70;;;;;;5085172;28;20028;-60
2021/10/17 10:46:40;;;;;;;2.33;1.30;;;14.00;99.00;;;;;;5092009;28;20065;-59
2021/10/17 10:49:05;;;;;;;5.60;2.88;;;14.10;98.10;;;;;;5091809;28;20489;-60
2021/10/17 10:51:48;;;;;;;5.55;2.88;;;14.10;97.40;;;;;;5093325;28;20035;-60
2021/10/17 10:54:25;;;;;;;4.97;2.53;;;14.00;96.50;;;;;;5090407;28;20105;-60
2021/10/17 10:56:52;;;;;;;6.97;2.58;;;14.10;97.40;;;;;;5097466;28;20088;-60
2021/10/17 10:59:21;;;;;;;8.48;3.10;;;14.10;97.50;;;;;;5097457;28;20026;-61
2021/10/17 11:01:58;;;;;;;6.72;3.80;;;14.20;96.30;;;;;;5093323;28;20024;-59
2021/10/17 11:04:54;;;;;;;6.15;2.40;;;14.20;97.20;;;;;;5089999;28;20035;-61
2021/10/17 11:07:34;;;;;;;8.98;3.95;;;14.20;95.80;;;;;;5087839;28;20025;-60
2021/10/17 11:10:27;;;;;;;6.63;2.53;;;14.20;96.00;;;;;;5093107;28;20027;-61
2021/10/17 11:15:33;;;;;;;9.73;2.45;;;14.20;95.00;;;;;;5122715;22;1061949;-60
2021/10/17 11:18:03;;;;;;;5.45;3.10;;;14.10;94.50;;;;;;5081241;28;20024;-60
2021/10/17 11:20:32;;;;;;;5.90;2.70;;;14.10;94.90;;;;;;5091390;28;20485;-60
2021/10/17 11:22:59;;;;;;;6.28;2.88;;;14.00;96.40;;;;;;5084954;28;20028;-58
2021/10/17 11:25:26;;;;;;;6.38;3.00;;;14.10;94.90;;;;;;5092167;28;20379;-59
2021/10/17 11:27:53;;;;;;;6.22;3.03;;;14.00;94.30;;;;;;5093334;28;20028;-59
2021/10/17 11:30:47;;;;;;;9.23;4.80;;;13.90;97.00;;;;;;5093189;28;20078;-59
2021/10/17 11:33:21;;;;;;;6.70;3.42;;;13.90;96.40;;;;;;5076141;28;20032;-60
2021/10/17 11:35:48;;;;;;;5.93;2.47;;;13.90;95.90;;;;;;5093495;28;20545;-60
2021/10/17 11:38:15;;;;;;;8.80;4.72;;;13.90;94.80;;;;;;5093362;28;20748;-60
2021/10/17 11:40:42;;;;;;;8.27;2.40;;;13.90;94.60;;;;;;5093395;28;20500;-60
2021/10/17 11:43:08;;;;;;;3.53;1.77;;;14.00;94.00;;;;;;5093203;28;20107;-60
2021/10/17 11:45:39;;;;;;;9.88;4.68;;;14.00;93.80;;;;;;5093380;28;20469;-60
2021/10/17 11:48:06;;;;;;;7.25;3.97;;;14.00;94.60;;;;;;5093076;28;20046;-60
2021/10/17 11:50:35;;;;;;;6.65;3.55;;;13.90;93.80;;;;;;5093242;28;20035;-60
2021/10/17 11:53:04;;;;;;;3.42;2.38;;;14.00;94.40;;;;;;5093306;28;20122;-59
2021/10/17 11:55:40;;;;;;;7.43;2.75;;;14.10;93.30;;;;;;5091791;28;20050;-60
2021/10/17 11:58:30;;;;;;;5.55;2.53;;;14.30;94.90;;;;;;5093134;28;20024;-60
2021/10/17 12:01:15;;;;;;;2.58;1.73;;;14.40;94.40;;;;;;5093036;28;20024;-58
2021/10/17 12:03:47;;;;;;;7.93;2.22;;;14.40;92.50;;;;;;5092887;28;20027;-59
2021/10/17 12:06:18;;;;;;;6.10;3.00;;;14.50;93.20;;;;;;5092877;28;20024;-60
2021/10/17 12:08:52;;;;;;;5.85;2.17;;;14.80;92.80;;;;;;5092551;28;20232;-60
2021/10/17 12:11:17;;;;;;;;;;;14.80;93.40;;;;;;5093086;28;20022;-60
2021/10/17 12:13:46;;;;;;;4.97;1.52;;;14.80;91.10;;;;;;5092823;28;20292;-60
2021/10/17 12:16:17;;;;;;;5.00;1.75;;;15.00;91.60;;;;;;5092717;28;20024;-60
2021/10/17 12:18:50;;;;;;;5.50;1.88;;;15.00;91.50;;;;;;5092428;28;20030;-60
2021/10/17 12:21:18;;;;;;;7.13;2.20;;;15.00;91.10;;;;;;5092587;28;20482;-60
2021/10/17 12:23:45;;;;;;;6.20;2.10;;;15.10;91.70;;;;;;5092402;28;20028;-60
2021/10/17 12:26:16;;;;;;;5.22;2.30;;;14.90;90.50;;;;;;5092186;28;20498;-60
2021/10/17 12:28:42;;;;;;;2.60;1.73;;;15.00;90.60;;;;;;5092310;28;20092;-60
2021/10/17 12:31:08;;;;;;;2.90;1.48;;;14.90;90.30;;;;;;5092175;28;20517;-59
2021/10/17 12:33:38;;;;;;;19.95;10.20;;;14.90;90.40;;;;;;5092805;28;20048;-60
2021/10/17 12:36:05;;;;;;;107.43;57.80;;;14.90;91.30;;;;;;5092375;28;20405;-60
2021/10/17 12:38:35;;;;;;;12.52;6.60;;;14.80;92.20;;;;;;5092325;28;20028;-60
2021/10/17 12:41:06;;;;;;;3.95;2.17;;;15.00;91.30;;;;;;5092213;28;20027;-60
2021/10/17 12:43:34;;;;;;;3.70;1.70;;;14.90;90.50;;;;;;5092010;28;20130;-60
2021/10/17 12:46:13;;;;;;;3.38;1.65;;;15.00;90.40;;;;;;5091864;28;20034;-60
2021/10/17 12:48:43;;;;;;;3.83;2.40;;;14.80;90.80;;;;;;5091607;28;20432;-60
2021/10/17 12:51:30;;;;;;;7.45;3.60;;;14.90;90.70;;;;;;5091873;28;20493;-60